Time;durP1;ratioP1;P1;durP2;ratioP2;P2;SDS_P1;SDS_P2;PMS_P1;PMS_P2;Temp;Humidity;BMP_temperature;BMP_pressure;BME280_temperature;BME280_humidity;BME280_pressure;Samples;Min_cycle;Max_cycle;Signal;HPM_P1;HPM_P2
2022/05/11 00:01:15;;;;;;;0.87;0.87;;;13.70;99.90;;;;;;5073524;28;20438;-71
2022/05/11 00:03:41;;;;;;;0.30;0.30;;;13.70;99.90;;;;;;5073491;28;20802;-70
2022/05/11 00:06:07;;;;;;;0.93;0.83;;;13.60;99.90;;;;;;5073746;28;20410;-71
2022/05/11 00:08:33;;;;;;;0.40;0.40;;;13.60;99.90;;;;;;5073643;28;20496;-71
2022/05/11 00:10:59;;;;;;;0.30;0.30;;;13.60;99.90;;;;;;5073392;28;20415;-72
2022/05/11 00:13:25;;;;;;;0.30;0.30;;;13.50;99.90;;;;;;5073333;28;20235;-71
2022/05/11 00:15:51;;;;;;;0.30;0.30;;;13.50;99.90;;;;;;5073469;28;20165;-71
2022/05/11 00:18:17;;;;;;;0.40;0.40;;;13.50;99.90;;;;;;5072296;28;20419;-71
2022/05/11 00:20:42;;;;;;;0.73;0.73;;;13.40;99.90;;;;;;5073277;28;20410;-72
2022/05/11 00:23:08;;;;;;;1.10;1.00;;;13.40;99.90;;;;;;5073228;28;20720;-71
2022/05/11 00:25:34;;;;;;;0.60;0.60;;;13.40;99.90;;;;;;5073302;28;20182;-71
2022/05/11 00:27:59;;;;;;;0.30;0.30;;;13.30;99.90;;;;;;5073191;28;20212;-72
2022/05/11 00:30:27;;;;;;;0.30;0.30;;;13.30;99.90;;;;;;5073110;28;20174;-71
2022/05/11 00:32:56;;;;;;;0.30;0.30;;;13.30;99.90;;;;;;5073219;28;20181;-71
2022/05/11 00:35:22;;;;;;;0.60;0.60;;;13.30;99.90;;;;;;5073261;28;20407;-71
2022/05/11 00:37:49;;;;;;;0.40;0.40;;;13.20;99.90;;;;;;5073457;28;20404;-72
2022/05/11 00:40:16;;;;;;;0.30;0.30;;;13.20;99.90;;;;;;5073026;28;20414;-71
2022/05/11 00:42:42;;;;;;;0.30;0.30;;;13.20;99.90;;;;;;5073131;28;20435;-71
2022/05/11 00:45:08;;;;;;;0.30;0.30;;;13.10;99.90;;;;;;5073204;28;20456;-71
2022/05/11 00:47:44;;;;;;;0.30;0.30;;;13.20;99.90;;;;;;5073252;28;20288;-70
2022/05/11 00:50:16;;;;;;;0.30;0.30;;;13.20;99.90;;;;;;5073141;28;20422;-71
2022/05/11 00:52:47;;;;;;;0.40;0.40;;;13.10;99.90;;;;;;5073245;28;20433;-71
2022/05/11 00:55:30;;;;;;;0.30;0.30;;;13.10;99.90;;;;;;5073105;28;20400;-71
2022/05/11 00:58:09;;;;;;;0.30;0.30;;;13.00;99.90;;;;;;5073033;28;20425;-72
2022/05/11 01:00:36;;;;;;;0.90;0.90;;;12.90;99.90;;;;;;5072998;28;20407;-70
2022/05/11 01:03:09;;;;;;;0.30;0.30;;;12.90;99.90;;;;;;5072960;28;20424;-72
2022/05/11 01:05:35;;;;;;;0.77;0.67;;;12.80;99.90;;;;;;5073209;28;20904;-71
2022/05/11 01:08:01;;;;;;;0.30;0.30;;;12.80;99.90;;;;;;5072927;28;20454;-72
2022/05/11 01:10:30;;;;;;;0.30;0.30;;;12.80;99.90;;;;;;5072802;28;20237;-72
2022/05/11 01:13:01;;;;;;;0.80;0.77;;;12.90;99.90;;;;;;5073389;28;20438;-71
2022/05/11 01:15:30;;;;;;;0.30;0.30;;;12.80;99.90;;;;;;5071809;28;20410;-72
2022/05/11 01:18:10;;;;;;;0.80;0.80;;;12.80;99.90;;;;;;5071949;28;20510;-72
2022/05/11 01:20:40;;;;;;;0.30;0.30;;;12.80;99.90;;;;;;5072965;28;20448;-72
2022/05/11 01:23:43;;;;;;;0.30;0.30;;;12.70;99.90;;;;;;5071484;28;20590;-71
2022/05/11 01:26:09;;;;;;;0.53;0.53;;;12.50;99.90;;;;;;5074617;28;20414;-72
2022/05/11 01:28:42;;;;;;;0.30;0.30;;;12.50;99.90;;;;;;5076270;28;20462;-71
2022/05/11 01:31:10;;;;;;;0.30;0.30;;;12.40;99.90;;;;;;5074895;28;20891;-71
2022/05/11 01:33:39;;;;;;;1.03;1.03;;;12.40;99.90;;;;;;5076038;28;20434;-71
2022/05/11 01:36:20;;;;;;;0.30;0.30;;;12.40;99.90;;;;;;5075163;28;20450;-71
2022/05/11 01:38:51;;;;;;;0.30;0.30;;;12.40;99.90;;;;;;5076160;28;20411;-71
2022/05/11 01:41:39;;;;;;;0.30;0.30;;;12.40;99.90;;;;;;5076200;28;20506;-71
2022/05/11 01:44:11;;;;;;;0.30;0.30;;;12.40;99.90;;;;;;5071743;28;20453;-70
2022/05/11 01:46:39;;;;;;;0.60;0.60;;;12.40;99.90;;;;;;5076444;28;20428;-71
2022/05/11 01:49:05;;;;;;;0.30;0.30;;;12.40;99.90;;;;;;5076286;28;20460;-71
2022/05/11 01:51:31;;;;;;;0.77;0.53;;;12.40;99.90;;;;;;5075838;28;20405;-71
2022/05/11 01:53:57;;;;;;;0.30;0.30;;;12.40;99.90;;;;;;5075848;28;20430;-71
2022/05/11 01:56:24;;;;;;;0.30;0.30;;;12.40;99.90;;;;;;5076018;28;20175;-71
2022/05/11 01:58:51;;;;;;;0.30;0.30;;;12.30;99.90;;;;;;5076005;28;20181;-72
2022/05/11 02:01:22;;;;;;;0.30;0.30;;;12.20;99.90;;;;;;5075619;28;20492;-71
2022/05/11 02:03:48;;;;;;;0.30;0.30;;;12.20;99.90;;;;;;5074406;28;20454;-72
2022/05/11 02:08:58;;;;;;;0.30;0.30;;;12.10;99.90;;;;;;5075863;28;20720;-71
2022/05/11 02:11:24;;;;;;;0.60;0.60;;;12.10;99.90;;;;;;5075442;28;20494;-71
2022/05/11 02:13:50;;;;;;;0.30;0.30;;;12.10;99.90;;;;;;5075484;28;20224;-70
2022/05/11 02:16:16;;;;;;;0.98;0.90;;;12.10;99.90;;;;;;5075495;28;20398;-71
2022/05/11 02:18:42;;;;;;;0.30;0.30;;;12.00;99.90;;;;;;5075829;28;20178;-70
2022/05/11 02:21:08;;;;;;;0.40;0.40;;;12.00;99.90;;;;;;5075190;28;20407;-72
2022/05/11 02:23:35;;;;;;;0.30;0.30;;;11.90;99.90;;;;;;5075231;28;20546;-71
2022/05/11 02:26:01;;;;;;;0.30;0.30;;;11.90;99.90;;;;;;5075565;28;20209;-71
2022/05/11 02:28:27;;;;;;;0.30;0.30;;;11.80;99.90;;;;;;5075307;28;20486;-71
2022/05/11 02:30:56;;;;;;;0.30;0.30;;;11.80;99.90;;;;;;5075043;28;20407;-71
2022/05/11 02:33:23;;;;;;;0.40;0.40;;;11.90;99.90;;;;;;5075048;28;20433;-72
2022/05/11 02:35:49;;;;;;;0.30;0.30;;;11.80;99.90;;;;;;5073764;28;20469;-70
2022/05/11 02:38:20;;;;;;;0.30;0.30;;;11.70;99.90;;;;;;5074241;28;20415;-71
2022/05/11 02:40:47;;;;;;;0.30;0.30;;;11.80;99.90;;;;;;5073713;28;20465;-71
2022/05/11 02:43:14;;;;;;;0.30;0.30;;;11.90;99.90;;;;;;5075166;28;20185;-71
2022/05/11 02:45:41;;;;;;;0.30;0.30;;;11.90;99.90;;;;;;5074857;28;20411;-70
2022/05/11 02:48:08;;;;;;;1.47;1.47;;;11.90;99.90;;;;;;5073582;28;20702;-71
2022/05/11 02:50:42;;;;;;;0.30;0.30;;;11.90;99.90;;;;;;5074819;28;20411;-71
2022/05/11 02:53:09;;;;;;;0.30;0.30;;;11.90;99.90;;;;;;5074827;28;20200;-71
2022/05/11 02:55:47;;;;;;;0.30;0.30;;;11.90;99.90;;;;;;5074666;28;20191;-70
2022/05/11 02:58:14;;;;;;;0.30;0.30;;;11.70;99.90;;;;;;5074688;28;20173;-71
2022/05/11 03:00:43;;;;;;;0.30;0.30;;;11.70;99.90;;;;;;5074418;28;20404;-71
2022/05/11 03:03:10;;;;;;;0.30;0.30;;;11.60;99.90;;;;;;5073325;28;20443;-71
2022/05/11 03:05:36;;;;;;;0.40;0.40;;;11.60;99.90;;;;;;5074477;28;20231;-71
2022/05/11 03:08:02;;;;;;;0.30;0.30;;;11.60;99.90;;;;;;5074495;28;20980;-71
2022/05/11 03:10:28;;;;;;;0.30;0.30;;;11.60;99.90;;;;;;5074452;28;20177;-70
2022/05/11 03:12:53;;;;;;;0.30;0.30;;;11.60;99.90;;;;;;5074420;28;20436;-70
2022/05/11 03:15:19;;;;;;;0.30;0.30;;;11.60;99.90;;;;;;5074389;28;20172;-72
2022/05/11 03:17:45;;;;;;;0.40;0.40;;;11.60;99.90;;;;;;5074423;28;20673;-71
2022/05/11 03:20:11;;;;;;;0.30;0.30;;;11.60;99.90;;;;;;5074218;28;20411;-71
2022/05/11 03:22:37;;;;;;;0.30;0.30;;;11.60;99.90;;;;;;5074100;28;20303;-72
2022/05/11 03:25:04;;;;;;;0.83;0.83;;;11.60;99.90;;;;;;5074128;28;20181;-71
2022/05/11 03:27:30;;;;;;;0.30;0.30;;;11.50;99.90;;;;;;5074389;28;20444;-72
2022/05/11 03:29:56;;;;;;;0.40;0.40;;;11.60;99.90;;;;;;5074247;28;20407;-70
2022/05/11 03:35:08;;;;;;;0.30;0.30;;;11.60;99.90;;;;;;5074219;28;20211;-71
2022/05/11 03:37:34;;;;;;;0.30;0.30;;;11.60;99.90;;;;;;5073986;28;20613;-71
2022/05/11 03:40:01;;;;;;;0.30;0.30;;;11.60;99.90;;;;;;5073977;28;20621;-71
2022/05/11 03:42:31;;;;;;;0.30;0.30;;;11.70;99.90;;;;;;5073806;28;20431;-70
2022/05/11 03:45:16;;;;;;;0.30;0.30;;;11.70;99.90;;;;;;5073876;28;20178;-72
2022/05/11 03:47:42;;;;;;;0.30;0.30;;;11.60;99.90;;;;;;5073626;28;20189;-70
2022/05/11 03:50:09;;;;;;;0.30;0.30;;;11.60;99.90;;;;;;5073621;28;20538;-70
2022/05/11 03:52:35;;;;;;;0.30;0.30;;;11.60;99.90;;;;;;5073799;28;20186;-71
2022/05/11 03:55:03;;;;;;;0.30;0.30;;;11.50;99.90;;;;;;5073764;28;20411;-71
2022/05/11 03:57:29;;;;;;;0.30;0.30;;;11.50;99.90;;;;;;5073789;28;20457;-72
2022/05/11 03:59:54;;;;;;;0.30;0.30;;;11.50;99.90;;;;;;5073787;28;20404;-71
2022/05/11 04:02:20;;;;;;;0.37;0.37;;;11.60;99.90;;;;;;5073375;28;20243;-70
2022/05/11 04:04:46;;;;;;;1.23;0.80;;;11.50;99.90;;;;;;5073763;28;20700;-71
2022/05/11 04:07:12;;;;;;;0.30;0.30;;;11.60;99.90;;;;;;5073546;28;20517;-72
2022/05/11 04:09:39;;;;;;;0.30;0.30;;;11.60;99.90;;;;;;5073665;28;20348;-72
2022/05/11 04:12:06;;;;;;;0.30;0.30;;;11.60;99.90;;;;;;5073236;28;20700;-72
2022/05/11 04:14:32;;;;;;;0.30;0.30;;;11.60;99.90;;;;;;5073415;28;20168;-71
2022/05/11 04:16:59;;;;;;;0.30;0.30;;;11.50;99.90;;;;;;5073683;28;20649;-71
2022/05/11 04:19:28;;;;;;;0.30;0.30;;;11.40;99.90;;;;;;5073658;28;20450;-71
2022/05/11 04:21:54;;;;;;;0.40;0.40;;;11.50;99.90;;;;;;5073241;28;20435;-71
2022/05/11 04:24:19;;;;;;;0.30;0.30;;;11.60;99.90;;;;;;5073384;28;20178;-70
2022/05/11 04:26:45;;;;;;;0.30;0.30;;;11.70;99.90;;;;;;5073368;28;20253;-71
2022/05/11 04:29:11;;;;;;;0.30;0.30;;;11.70;99.90;;;;;;5073416;28;20201;-71
2022/05/11 04:31:37;;;;;;;0.30;0.30;;;11.80;99.90;;;;;;5070688;28;20511;-72
2022/05/11 04:34:03;;;;;;;0.30;0.30;;;11.90;99.90;;;;;;5073191;28;20190;-71
2022/05/11 04:36:30;;;;;;;0.30;0.30;;;11.90;99.90;;;;;;5073467;28;20396;-71
2022/05/11 04:38:56;;;;;;;0.30;0.30;;;12.00;99.90;;;;;;5073377;28;20531;-72
2022/05/11 04:41:21;;;;;;;0.30;0.30;;;12.00;99.90;;;;;;5073113;28;20411;-71
2022/05/11 04:43:48;;;;;;;0.30;0.30;;;12.10;99.90;;;;;;5073101;28;20431;-71
2022/05/11 04:46:14;;;;;;;0.30;0.30;;;12.20;99.90;;;;;;5073189;28;20179;-71
2022/05/11 04:48:42;;;;;;;0.30;0.30;;;12.30;99.90;;;;;;5073090;28;20546;-71
2022/05/11 04:51:08;;;;;;;0.30;0.30;;;12.40;99.90;;;;;;5071690;28;20180;-71
2022/05/11 04:53:34;;;;;;;1.90;0.90;;;12.80;99.90;;;;;;5073098;28;21003;-72
2022/05/11 04:55:59;;;;;;;0.40;0.40;;;13.20;99.90;;;;;;5071721;28;20510;-72
2022/05/11 04:58:25;;;;;;;0.30;0.30;;;13.40;99.90;;;;;;5073184;28;20254;-71
2022/05/11 05:00:51;;;;;;;0.60;0.60;;;13.80;99.90;;;;;;5074705;28;20777;-71
2022/05/11 05:03:17;;;;;;;0.67;0.67;;;14.00;99.90;;;;;;5076795;28;20201;-72
2022/05/11 05:05:43;;;;;;;0.30;0.30;;;14.40;99.90;;;;;;5076859;28;20175;-71
2022/05/11 05:08:09;;;;;;;0.30;0.30;;;14.80;99.90;;;;;;5076981;28;20233;-71
2022/05/11 05:10:36;;;;;;;0.30;0.30;;;15.00;99.90;;;;;;5076732;28;20429;-71
2022/05/11 05:13:07;;;;;;;0.40;0.40;;;15.20;99.90;;;;;;5076681;28;20438;-71
2022/05/11 05:15:36;;;;;;;0.30;0.30;;;15.40;99.50;;;;;;5077052;28;20395;-70
2022/05/11 05:18:06;;;;;;;0.30;0.30;;;15.50;99.40;;;;;;5077219;28;20532;-71
2022/05/11 05:20:33;;;;;;;0.40;0.40;;;15.50;99.00;;;;;;5075600;28;20427;-72
2022/05/11 05:23:00;;;;;;;0.30;0.30;;;15.50;98.90;;;;;;5059243;28;20478;-71
2022/05/11 05:25:27;;;;;;;0.30;0.30;;;15.40;98.70;;;;;;5075156;28;20537;-72
2022/05/11 05:31:04;;;;;;;0.30;0.30;;;15.20;98.10;;;;;;5076234;28;20469;-72
2022/05/11 05:33:29;;;;;;;0.30;0.30;;;14.60;99.50;;;;;;5076385;28;20446;-71
2022/05/11 05:35:55;;;;;;;2.03;1.83;;;15.10;99.90;;;;;;5074754;28;20415;-72
2022/05/11 05:38:22;;;;;;;0.30;0.30;;;15.60;99.80;;;;;;5074989;28;20421;-72
2022/05/11 05:40:48;;;;;;;0.93;0.93;;;16.20;98.70;;;;;;5076110;28;20857;-73
2022/05/11 05:43:14;;;;;;;0.30;0.30;;;16.70;98.40;;;;;;5076305;28;20427;-72
2022/05/11 05:45:41;;;;;;;1.20;1.20;;;17.30;97.60;;;;;;5074573;28;20612;-72
2022/05/11 05:48:07;;;;;;;0.30;0.30;;;18.20;96.30;;;;;;5076253;28;20448;-71
2022/05/11 05:50:35;;;;;;;0.40;0.40;;;19.00;93.80;;;;;;5075486;28;20890;-72
2022/05/11 05:53:01;;;;;;;0.77;0.77;;;19.80;92.60;;;;;;5076264;28;20518;-73
2022/05/11 05:55:27;;;;;;;0.30;0.30;;;20.30;91.20;;;;;;5074980;28;20497;-73
2022/05/11 05:57:53;;;;;;;0.30;0.30;;;20.70;89.70;;;;;;5075977;28;20770;-72
2022/05/11 06:00:20;;;;;;;1.43;0.93;;;21.20;88.10;;;;;;5074082;28;20419;-72
2022/05/11 06:02:47;;;;;;;0.30;0.30;;;21.80;87.00;;;;;;5074356;28;20496;-72
2022/05/11 06:05:22;;;;;;;0.70;0.70;;;22.80;84.10;;;;;;5074438;28;20431;-72
2022/05/11 06:07:48;;;;;;;0.30;0.30;;;24.00;81.00;;;;;;5074612;28;20466;-73
2022/05/11 06:10:15;;;;;;;0.30;0.30;;;25.00;77.80;;;;;;5074381;28;20816;-72
2022/05/11 06:12:43;;;;;;;0.93;0.60;;;25.70;73.10;;;;;;5073914;28;20440;-73
2022/05/11 06:15:14;;;;;;;0.50;0.50;;;26.70;71.30;;;;;;5074044;28;20947;-73
2022/05/11 06:17:41;;;;;;;0.87;0.57;;;27.70;65.80;;;;;;5057809;28;20518;-72
2022/05/11 06:20:11;;;;;;;0.40;0.40;;;28.90;60.70;;;;;;5075662;28;20416;-73
2022/05/11 06:22:38;;;;;;;0.40;0.40;;;30.30;57.20;;;;;;5075107;28;20455;-73
2022/05/11 06:25:07;;;;;;;0.40;0.40;;;31.40;53.30;;;;;;5073637;28;20800;-73
2022/05/11 06:27:36;;;;;;;0.50;0.50;;;32.40;51.30;;;;;;5075489;28;20936;-72
2022/05/11 06:30:03;;;;;;;2.77;1.53;;;32.90;48.60;;;;;;5075037;28;20423;-73
2022/05/11 06:32:29;;;;;;;0.40;0.40;;;33.60;47.10;;;;;;5074066;28;20435;-73
2022/05/11 06:34:55;;;;;;;0.40;0.40;;;33.90;45.40;;;;;;5074626;28;20479;-73
2022/05/11 06:37:24;;;;;;;1.53;1.13;;;34.50;44.90;;;;;;5075320;28;20431;-73
2022/05/11 06:39:51;;;;;;;0.57;0.57;;;35.00;43.10;;;;;;5073817;28;20404;-72
2022/05/11 06:42:17;;;;;;;0.57;0.50;;;35.10;43.30;;;;;;5075317;28;20514;-67
2022/05/11 06:44:43;;;;;;;0.60;0.57;;;35.10;41.40;;;;;;5075045;28;20434;-67
2022/05/11 06:47:09;;;;;;;0.30;0.30;;;33.70;41.60;;;;;;5075387;28;20408;-67
2022/05/11 06:49:34;;;;;;;0.47;0.47;;;31.60;43.90;;;;;;5073924;28;20735;-68
2022/05/11 06:52:04;;;;;;;0.30;0.30;;;29.40;48.20;;;;;;5074946;28;20166;-68
2022/05/11 06:59:58;;;;;;;0.30;0.30;;;24.90;57.50;;;;;;5074901;28;20418;-65
2022/05/11 07:02:25;;;;;;;0.50;0.50;;;24.00;60.10;;;;;;5074195;28;20938;-67
2022/05/11 07:04:51;;;;;;;0.30;0.30;;;23.40;61.60;;;;;;5074660;28;20621;-66
2022/05/11 07:07:18;;;;;;;1.23;1.23;;;22.90;63.20;;;;;;5074329;28;20397;-66
2022/05/11 07:09:44;;;;;;;0.50;0.50;;;22.50;63.10;;;;;;5075099;28;20408;-67
2022/05/11 07:12:31;;;;;;;0.30;0.30;;;22.20;68.60;;;;;;5073449;28;20472;-68
2022/05/11 07:14:57;;;;;;;0.30;0.30;;;21.90;67.70;;;;;;5073221;28;20622;-65
2022/05/11 07:17:47;;;;;;;0.93;0.93;;;21.80;70.80;;;;;;5073140;28;20459;-75
2022/05/11 07:20:36;;;;;;;0.50;0.50;;;21.70;70.70;;;;;;5070678;28;20184;-71
2022/05/11 07:23:07;;;;;;;0.40;0.40;;;23.10;69.70;;;;;;5072120;28;20491;-69
2022/05/11 07:25:34;;;;;;;0.50;0.50;;;25.60;60.60;;;;;;5074255;28;20407;-69
2022/05/11 07:28:01;;;;;;;0.57;0.57;;;27.40;56.30;;;;;;5073903;28;20452;-70
2022/05/11 07:30:37;;;;;;;0.40;0.40;;;29.40;52.60;;;;;;5073941;28;20554;-70
2022/05/11 07:33:04;;;;;;;0.33;0.33;;;31.30;49.30;;;;;;5074242;28;21057;-70
2022/05/11 07:35:30;;;;;;;0.50;0.50;;;32.00;44.00;;;;;;5073828;28;20487;-71
2022/05/11 07:37:59;;;;;;;0.43;0.43;;;32.60;43.70;;;;;;5073312;28;20404;-71
2022/05/11 07:40:25;;;;;;;0.47;0.47;;;33.50;40.40;;;;;;5073173;28;20412;-72
2022/05/11 07:42:51;;;;;;;1.13;0.50;;;33.50;39.70;;;;;;5071794;28;20438;-70
2022/05/11 07:45:19;;;;;;;0.40;0.40;;;33.50;40.70;;;;;;5073773;28;20193;-73
2022/05/11 07:47:47;;;;;;;1.27;1.00;;;33.40;39.00;;;;;;5073724;28;20979;-73
2022/05/11 07:50:14;;;;;;;0.30;0.30;;;33.30;39.60;;;;;;5072498;28;20473;-73
2022/05/11 07:52:46;;;;;;;0.40;0.40;;;33.00;38.60;;;;;;5073893;28;20459;-72
2022/05/11 07:55:15;;;;;;;0.40;0.40;;;32.50;38.80;;;;;;5074031;28;20486;-72
2022/05/11 08:00:25;;;;;;;0.40;0.40;;;32.40;39.30;;;;;;5074018;28;20918;-71
2022/05/11 08:02:52;;;;;;;1.50;1.13;;;31.90;39.10;;;;;;5071680;28;20522;-72
2022/05/11 08:05:19;;;;;;;0.30;0.30;;;31.80;39.40;;;;;;5071895;28;20415;-71
2022/05/11 08:07:55;;;;;;;0.50;0.50;;;31.40;40.50;;;;;;5072928;28;21034;-71
2022/05/11 08:10:30;;;;;;;0.40;0.40;;;31.90;40.30;;;;;;5070145;28;20419;-72
2022/05/11 08:12:55;;;;;;;0.30;0.30;;;32.50;39.10;;;;;;5072431;28;20415;-71
2022/05/11 08:15:31;;;;;;;0.37;0.37;;;32.50;38.10;;;;;;5073240;28;20411;-71
2022/05/11 08:17:59;;;;;;;0.30;0.30;;;32.50;37.90;;;;;;5070144;28;20177;-71
2022/05/11 08:20:29;;;;;;;0.50;0.50;;;32.80;38.10;;;;;;5071277;28;20427;-71
2022/05/11 08:22:56;;;;;;;0.73;0.73;;;33.40;37.00;;;;;;5073590;28;20798;-71
2022/05/11 08:25:25;;;;;;;0.40;0.40;;;33.90;36.20;;;;;;5070679;28;20408;-71
2022/05/11 08:27:52;;;;;;;0.30;0.30;;;34.00;36.20;;;;;;5072997;28;20447;-71
2022/05/11 08:33:27;;;;;;;0.63;0.63;;;33.60;35.40;;;;;;5071048;28;20493;-70
2022/05/11 08:36:07;;;;;;;0.57;0.57;;;33.40;36.40;;;;;;5075810;28;20406;-71
2022/05/11 08:38:42;;;;;;;0.40;0.40;;;33.30;38.10;;;;;;5059253;28;20420;-72
2022/05/11 08:41:19;;;;;;;0.90;0.70;;;33.90;36.60;;;;;;5074582;28;20526;-72
2022/05/11 08:43:45;;;;;;;0.30;0.30;;;34.30;35.90;;;;;;5077079;28;20431;-72
2022/05/11 08:46:28;;;;;;;0.50;0.50;;;34.80;35.00;;;;;;5075532;28;20443;-71
2022/05/11 08:49:44;;;;;;;0.40;0.40;;;35.20;33.40;;;;;;5076137;28;20447;-72
2022/05/11 08:52:27;;;;;;;0.67;0.67;;;35.10;33.40;;;;;;5076343;28;20488;-72
2022/05/11 08:55:22;;;;;;;0.77;0.77;;;34.80;34.30;;;;;;5075323;28;20896;-72
2022/05/11 08:57:49;;;;;;;0.40;0.40;;;34.20;33.00;;;;;;5077159;28;20576;-71
2022/05/11 09:00:18;;;;;;;0.40;0.40;;;33.80;34.50;;;;;;5075045;28;20412;-72
2022/05/11 09:02:58;;;;;;;0.40;0.40;;;33.90;35.10;;;;;;5075808;28;20439;-70
2022/05/11 09:05:28;;;;;;;0.53;0.50;;;33.00;34.20;;;;;;5076849;28;20488;-71
2022/05/11 09:07:55;;;;;;;0.70;0.70;;;32.50;35.80;;;;;;5076844;28;20446;-73
2022/05/11 09:10:26;;;;;;;1.43;0.57;;;32.10;36.60;;;;;;5076580;28;20408;-71
2022/05/11 09:12:54;;;;;;;0.40;0.40;;;32.80;36.30;;;;;;5075875;28;20431;-73
2022/05/11 09:15:21;;;;;;;0.50;0.50;;;33.10;35.30;;;;;;5076573;28;20410;-71
2022/05/11 09:17:48;;;;;;;0.30;0.30;;;33.30;36.10;;;;;;5076676;28;20762;-73
2022/05/11 09:20:22;;;;;;;0.70;0.60;;;33.00;35.50;;;;;;5075209;28;20477;-72
2022/05/11 09:22:58;;;;;;;0.40;0.40;;;32.30;36.70;;;;;;5076404;28;21035;-71
2022/05/11 09:25:27;;;;;;;0.40;0.40;;;32.70;38.60;;;;;;5075432;28;20796;-71
2022/05/11 09:28:14;;;;;;;2.00;0.50;;;32.00;37.00;;;;;;5076369;28;20473;-71
2022/05/11 09:30:58;;;;;;;0.30;0.30;;;32.20;36.40;;;;;;5074801;28;20431;-71
2022/05/11 09:33:33;;;;;;;0.50;0.43;;;32.60;36.40;;;;;;5074383;28;20427;-70
2022/05/11 09:36:02;;;;;;;0.40;0.30;;;32.30;35.60;;;;;;5076279;28;20797;-71
2022/05/11 09:38:39;;;;;;;0.67;0.67;;;32.30;37.40;;;;;;5076482;28;20423;-71
2022/05/11 09:41:10;;;;;;;0.40;0.40;;;32.70;36.50;;;;;;5076090;28;20757;-70
2022/05/11 09:43:44;;;;;;;1.20;1.20;;;32.60;36.00;;;;;;5076328;28;20897;-70
2022/05/11 09:46:30;;;;;;;0.40;0.40;;;32.30;35.80;;;;;;5075426;28;20411;-71
2022/05/11 09:49:05;;;;;;;0.40;0.30;;;32.50;36.70;;;;;;5074765;28;21037;-71
2022/05/11 09:51:41;;;;;;;0.50;0.50;;;32.40;35.40;;;;;;5073953;28;20410;-71
2022/05/11 09:54:16;;;;;;;0.60;0.60;;;32.30;36.20;;;;;;5075821;28;20506;-70
2022/05/11 09:56:56;;;;;;;0.50;0.50;;;31.80;37.50;;;;;;5076419;28;20403;-70
2022/05/11 09:59:27;;;;;;;0.60;0.60;;;32.40;38.40;;;;;;5074780;28;20419;-70
2022/05/11 10:02:22;;;;;;;0.53;0.53;;;32.80;37.20;;;;;;5075667;28;20419;-71
2022/05/11 10:05:20;;;;;;;0.40;0.40;;;33.20;35.50;;;;;;5075989;28;20442;-72
2022/05/11 10:08:01;;;;;;;0.50;0.50;;;33.60;35.00;;;;;;5075872;28;20454;-71
2022/05/11 10:10:40;;;;;;;1.63;1.50;;;32.90;35.60;;;;;;5075873;28;20490;-71
2022/05/11 10:13:30;;;;;;;0.87;0.73;;;32.30;36.60;;;;;;5074269;28;20436;-72
2022/05/11 10:24:45;;;;;;;0.87;0.87;;;30.80;37.50;;;;;;5072670;28;20462;-72
2022/05/11 10:27:29;;;;;;;0.50;0.50;;;30.80;38.40;;;;;;5073667;28;20920;-72
2022/05/11 10:30:03;;;;;;;0.70;0.60;;;30.60;37.50;;;;;;5075119;28;20478;-72
2022/05/11 10:32:55;;;;;;;0.30;0.30;;;30.70;38.20;;;;;;5075219;28;20466;-72
2022/05/11 10:35:23;;;;;;;0.30;0.30;;;31.10;38.70;;;;;;5072482;28;20430;-72
2022/05/11 10:38:05;;;;;;;0.50;0.50;;;30.80;38.20;;;;;;5074607;28;20399;-72
2022/05/11 10:41:05;;;;;;;0.50;0.50;;;30.40;39.30;;;;;;5073579;28;20407;-72
2022/05/11 10:43:52;;;;;;;0.50;0.50;;;30.50;39.90;;;;;;5071711;28;20525;-73
2022/05/11 10:46:35;;;;;;;0.30;0.30;;;30.30;39.10;;;;;;5075064;28;20411;-72
2022/05/11 10:49:34;;;;;;;1.80;0.60;;;29.90;38.90;;;;;;5073467;28;20470;-75
2022/05/11 10:52:41;;;;;;;1.30;0.60;;;29.40;40.10;;;;;;5073487;28;20412;-72
2022/05/11 10:55:18;;;;;;;0.30;0.30;;;28.80;41.50;;;;;;5073353;28;20434;-69
2022/05/11 10:57:52;;;;;;;0.40;0.40;;;28.40;42.50;;;;;;5072615;28;20415;-75
2022/05/11 11:00:22;;;;;;;0.40;0.40;;;27.80;41.90;;;;;;5073972;28;20443;-74
2022/05/11 11:03:09;;;;;;;1.10;1.10;;;27.50;42.90;;;;;;5073000;28;20484;-74
2022/05/11 11:09:14;;;;;;;0.30;0.30;;;26.90;44.40;;;;;;5074632;28;20451;-74
2022/05/11 11:11:51;;;;;;;0.30;0.30;;;27.00;45.50;;;;;;5075317;28;20424;-74
2022/05/11 11:14:36;;;;;;;0.40;0.40;;;26.80;43.70;;;;;;5074576;28;20411;-74
2022/05/11 11:17:07;;;;;;;0.40;0.40;;;26.40;45.00;;;;;;5074456;28;20426;-74
2022/05/11 11:19:35;;;;;;;0.30;0.30;;;26.50;45.50;;;;;;5074409;28;20447;-74
2022/05/11 11:22:04;;;;;;;0.67;0.67;;;26.80;46.00;;;;;;5072545;28;20412;-75
2022/05/11 11:24:32;;;;;;;0.30;0.30;;;27.20;45.70;;;;;;5072942;28;20481;-74
2022/05/11 11:27:04;;;;;;;0.40;0.40;;;27.20;44.50;;;;;;5073990;28;20486;-74
2022/05/11 11:29:37;;;;;;;0.50;0.50;;;27.20;44.30;;;;;;5074277;28;20463;-74
2022/05/11 11:32:19;;;;;;;0.30;0.30;;;26.80;44.10;;;;;;5073958;28;20545;-74
2022/05/11 11:35:08;;;;;;;0.30;0.30;;;26.30;44.30;;;;;;5073326;28;20514;-74
2022/05/11 11:37:40;;;;;;;0.50;0.50;;;25.90;45.00;;;;;;5073342;28;20397;-74
2022/05/11 11:40:23;;;;;;;0.30;0.30;;;25.90;44.90;;;;;;5072507;28;20789;-74
2022/05/11 11:42:53;;;;;;;0.50;0.50;;;25.80;45.40;;;;;;5073832;28;20426;-74
2022/05/11 11:45:26;;;;;;;0.67;0.67;;;25.90;46.40;;;;;;5074071;28;20529;-74
2022/05/11 11:48:16;;;;;;;0.30;0.30;;;26.00;45.40;;;;;;5072583;28;20465;-74
2022/05/11 11:50:54;;;;;;;0.40;0.40;;;26.20;45.90;;;;;;5073776;28;20403;-74
2022/05/11 11:53:33;;;;;;;0.40;0.40;;;26.00;45.70;;;;;;5073889;28;20472;-74
2022/05/11 11:56:33;;;;;;;0.30;0.30;;;26.20;45.80;;;;;;5070921;28;20473;-74
2022/05/11 11:59:39;;;;;;;0.60;0.60;;;26.50;45.30;;;;;;5061215;28;20465;-74
2022/05/11 12:02:14;;;;;;;0.30;0.30;;;26.40;44.50;;;;;;5070361;28;20908;-74
2022/05/11 12:05:09;;;;;;;0.40;0.40;;;26.50;44.20;;;;;;5071730;28;20890;-75
2022/05/11 12:16:53;;;;;;;0.50;0.50;;;25.60;47.30;;;;;;5071882;28;20449;-74
2022/05/11 12:19:21;;;;;;;0.50;0.50;;;25.40;47.20;;;;;;5072149;28;20436;-74
2022/05/11 12:22:02;;;;;;;0.30;0.30;;;25.50;47.30;;;;;;5073199;28;20407;-74
2022/05/11 12:24:42;;;;;;;0.30;0.30;;;25.50;45.70;;;;;;5073609;28;20460;-74
2022/05/11 12:27:23;;;;;;;0.30;0.30;;;25.50;46.50;;;;;;5073528;28;20426;-74
2022/05/11 12:30:02;;;;;;;0.30;0.30;;;25.60;46.00;;;;;;5073503;28;20416;-74
2022/05/11 12:32:33;;;;;;;0.30;0.30;;;25.80;47.50;;;;;;5073443;28;20430;-74
2022/05/11 12:35:18;;;;;;;0.40;0.40;;;25.90;48.30;;;;;;5073547;28;20384;-74
2022/05/11 12:37:56;;;;;;;0.40;0.40;;;26.20;48.10;;;;;;5073574;28;20526;-74
2022/05/11 12:40:22;;;;;;;0.30;0.30;;;26.30;46.30;;;;;;5071979;28;20432;-74
2022/05/11 12:42:55;;;;;;;0.40;0.40;;;26.40;44.60;;;;;;5073225;28;20445;-74
2022/05/11 12:45:25;;;;;;;0.30;0.30;;;26.30;44.30;;;;;;5073205;28;20381;-74
2022/05/11 12:48:02;;;;;;;0.60;0.60;;;26.10;44.50;;;;;;5073164;28;20946;-74
2022/05/11 12:50:48;;;;;;;0.30;0.30;;;26.00;44.80;;;;;;5073080;28;20421;-74
2022/05/11 12:53:25;;;;;;;0.30;0.30;;;25.80;45.80;;;;;;5073331;28;20431;-74
2022/05/11 12:55:54;;;;;;;0.30;0.30;;;25.50;47.20;;;;;;5073315;28;20488;-74
2022/05/11 12:58:24;;;;;;;0.30;0.30;;;25.30;47.80;;;;;;5071819;28;20470;-74
2022/05/11 13:01:01;;;;;;;0.30;0.30;;;25.30;48.40;;;;;;5073022;28;20411;-74
2022/05/11 13:03:29;;;;;;;0.50;0.50;;;25.50;47.90;;;;;;5073021;28;20465;-74
2022/05/11 13:05:59;;;;;;;0.50;0.50;;;25.60;47.70;;;;;;5072941;28;20418;-74
2022/05/11 13:08:27;;;;;;;0.33;0.33;;;25.50;48.90;;;;;;5072989;28;20954;-74
2022/05/11 13:10:54;;;;;;;0.30;0.30;;;25.40;48.80;;;;;;5072903;28;20410;-74
2022/05/11 13:13:29;;;;;;;0.30;0.30;;;25.60;50.40;;;;;;5072941;28;20417;-74
2022/05/11 13:16:04;;;;;;;0.30;0.30;;;25.80;48.30;;;;;;5072957;28;20402;-74
2022/05/11 13:18:31;;;;;;;1.70;1.60;;;25.70;48.70;;;;;;5073143;28;20468;-74
2022/05/11 13:21:00;;;;;;;0.40;0.40;;;25.60;50.10;;;;;;5073353;28;20470;-74
2022/05/11 13:23:35;;;;;;;1.93;1.87;;;25.60;48.70;;;;;;5076418;28;20449;-74
2022/05/11 13:26:09;;;;;;;0.30;0.30;;;25.80;49.10;;;;;;5076689;28;20410;-74
2022/05/11 13:28:53;;;;;;;0.40;0.40;;;25.60;48.50;;;;;;5076573;28;21052;-74
2022/05/11 13:31:31;;;;;;;1.40;1.33;;;25.30;51.10;;;;;;5076408;28;20387;-74
2022/05/11 13:33:58;;;;;;;0.63;0.63;;;25.30;50.50;;;;;;5076293;28;20454;-74
2022/05/11 13:36:37;;;;;;;0.40;0.40;;;25.40;51.20;;;;;;5076600;28;20406;-75
2022/05/11 13:39:12;;;;;;;0.30;0.30;;;25.50;51.30;;;;;;5076505;28;20755;-74
2022/05/11 13:42:18;;;;;;;0.53;0.53;;;25.40;51.50;;;;;;5076044;28;20396;-74
2022/05/11 13:44:52;;;;;;;0.30;0.30;;;25.40;52.50;;;;;;5076410;28;20759;-74
2022/05/11 13:50:27;;;;;;;0.30;0.30;;;25.40;52.30;;;;;;5075924;28;20385;-74
2022/05/11 13:53:00;;;;;;;0.30;0.30;;;25.60;51.30;;;;;;5075872;28;20430;-74
2022/05/11 13:56:00;;;;;;;0.30;0.30;;;25.80;51.80;;;;;;5075948;28;20431;-74